createdAt,value
2023-05-21T00:00:56.990Z,62.81
2023-05-21T00:04:00.003Z,62.83
2023-05-21T00:07:02.521Z,62.45
2023-05-21T00:10:05.525Z,62.82
2023-05-21T00:13:09.176Z,63.10
2023-05-21T00:16:11.735Z,63.90
2023-05-21T00:19:14.289Z,63.64
2023-05-21T00:22:16.989Z,63.73
2023-05-21T00:25:19.416Z,63.43
2023-05-21T00:28:21.939Z,63.45
2023-05-21T00:31:24.481Z,64.21
2023-05-21T00:34:27.398Z,64.24
2023-05-21T00:37:33.020Z,64.03
2023-05-21T00:40:41.328Z,64.13
2023-05-21T00:43:44.709Z,64.47
2023-05-21T00:46:49.020Z,63.86
2023-05-21T00:49:53.409Z,64.60
2023-05-21T00:52:56.093Z,64.68
2023-05-21T00:55:58.526Z,64.41
2023-05-21T00:59:05.594Z,64.83
2023-05-21T01:02:09.626Z,64.47
2023-05-21T01:05:12.181Z,64.75
2023-05-21T01:08:15.104Z,64.58
2023-05-21T01:11:17.888Z,64.50
2023-05-21T01:14:20.262Z,64.25
2023-05-21T01:17:24.514Z,63.89
2023-05-21T01:20:27.490Z,63.92
2023-05-21T01:23:30.648Z,64.49
2023-05-21T01:26:33.926Z,64.57
2023-05-21T01:29:36.367Z,64.06
2023-05-21T01:32:59.296Z,63.90
2023-05-21T01:36:16.095Z,63.78
2023-05-21T01:39:24.126Z,63.97
2023-05-21T01:42:26.530Z,64.33
2023-05-21T01:45:29.622Z,64.66
2023-05-21T01:48:32.046Z,65.18
2023-05-21T01:51:34.664Z,65.18
2023-05-21T01:54:37.033Z,64.68
2023-05-21T01:57:39.402Z,65.20
2023-05-21T02:00:41.991Z,65.38
2023-05-21T02:03:44.875Z,65.34
2023-05-21T02:06:47.381Z,64.98
2023-05-21T02:09:49.739Z,64.45
2023-05-21T02:12:53.120Z,63.99
2023-05-21T02:15:56.360Z,64.16
2023-05-21T02:19:00.772Z,64.93
2023-05-21T02:22:03.242Z,65.30
2023-05-21T02:25:07.536Z,65.64
2023-05-21T02:28:09.900Z,66.41
2023-05-21T02:31:12.772Z,66.94
2023-05-21T02:34:15.198Z,67.70
2023-05-21T02:37:17.794Z,66.92
2023-05-21T02:40:20.399Z,67.13
2023-05-21T02:43:22.876Z,67.14
2023-05-21T02:46:25.313Z,67.39
2023-05-21T02:49:28.546Z,67.56
2023-05-21T02:52:31.078Z,67.55
2023-05-21T02:55:33.705Z,67.57
2023-05-21T02:58:37.212Z,67.94
2023-05-21T03:01:41.410Z,67.43
2023-05-21T03:04:48.581Z,67.62
2023-05-21T03:07:51.475Z,67.52
2023-05-21T03:10:53.971Z,67.85
2023-05-21T03:13:56.386Z,68.39
2023-05-21T03:16:58.814Z,68.31
2023-05-21T03:20:01.248Z,67.94
2023-05-21T03:23:04.475Z,67.30
2023-05-21T03:26:07.119Z,67.75
2023-05-21T03:29:09.586Z,68.17
2023-05-21T03:32:13.037Z,67.78
2023-05-21T03:35:15.873Z,67.53
2023-05-21T03:38:18.546Z,67.37
2023-05-21T03:41:21.324Z,67.89
2023-05-21T03:44:28.168Z,67.48
2023-05-21T03:47:43.144Z,67.90
2023-05-21T03:50:46.344Z,68.12
2023-05-21T03:53:50.931Z,68.16
2023-05-21T03:56:53.641Z,68.28
2023-05-21T03:59:58.969Z,67.87
2023-05-21T04:03:01.743Z,67.86
2023-05-21T04:06:04.516Z,67.58
2023-05-21T04:09:07.153Z,67.54
2023-05-21T04:12:09.534Z,67.71
2023-05-21T04:15:12.617Z,68.23
2023-05-21T04:18:17.834Z,68.15
2023-05-21T04:21:20.740Z,68.14
2023-05-21T04:24:23.541Z,67.61
2023-05-21T04:27:37.142Z,67.99
2023-05-21T04:30:39.658Z,68.23
2023-05-21T04:33:42.325Z,68.20
2023-05-21T04:36:45.609Z,67.82
2023-05-21T04:39:48.950Z,67.44
2023-05-21T04:42:51.486Z,67.10
2023-05-21T04:45:56.781Z,67.08
2023-05-21T04:49:03.091Z,66.26
2023-05-21T04:52:05.570Z,66.00
2023-05-21T04:55:09.026Z,65.91
2023-05-21T04:58:11.521Z,66.15
2023-05-21T05:01:17.595Z,65.40
2023-05-21T05:04:21.533Z,65.50
2023-05-21T05:07:24.339Z,65.73
2023-05-21T05:10:27.736Z,66.46
2023-05-21T05:13:31.132Z,66.63
2023-05-21T05:16:34.327Z,67.20
2023-05-21T05:19:36.993Z,67.33
2023-05-21T05:22:39.449Z,67.41
2023-05-21T05:25:41.881Z,67.70
2023-05-21T05:28:45.983Z,67.04
2023-05-21T05:31:48.462Z,66.55
2023-05-21T05:34:51.470Z,65.69
2023-05-21T05:37:53.893Z,64.75
2023-05-21T05:40:56.349Z,64.90
2023-05-21T05:43:58.718Z,64.84
2023-05-21T05:47:09.247Z,63.91
2023-05-21T05:50:11.877Z,64.66
2023-05-21T05:53:14.780Z,63.61
2023-05-21T05:56:17.325Z,61.54
2023-05-21T05:59:20.433Z,61.66
2023-05-21T06:02:25.620Z,62.69
2023-05-21T06:05:29.316Z,63.15
2023-05-21T06:08:36.699Z,64.69
2023-05-21T06:11:40.661Z,64.26
2023-05-21T06:14:45.125Z,63.82
2023-05-21T06:17:48.050Z,61.87
2023-05-21T06:20:51.142Z,62.79
2023-05-21T06:23:55.603Z,63.13
2023-05-21T06:26:58.075Z,62.45
2023-05-21T06:30:00.820Z,63.00
2023-05-21T06:33:03.462Z,62.66
2023-05-21T06:36:06.536Z,62.43
2023-05-21T06:39:09.048Z,63.17
2023-05-21T06:42:11.617Z,63.05
2023-05-21T06:45:20.082Z,62.58
2023-05-21T06:48:22.518Z,63.21
2023-05-21T06:51:24.903Z,61.88
2023-05-21T06:54:27.362Z,62.05
2023-05-21T06:57:30.407Z,61.67
2023-05-21T07:00:33.297Z,60.98
2023-05-21T07:03:36.477Z,61.33
2023-05-21T07:06:39.134Z,59.99
2023-05-21T07:09:41.789Z,59.75
2023-05-21T07:12:44.592Z,59.77
2023-05-21T07:15:47.203Z,59.55
2023-05-21T07:18:50.003Z,59.87
2023-05-21T07:21:52.503Z,58.67
2023-05-21T07:24:54.956Z,60.12
2023-05-21T07:27:57.385Z,59.16
2023-05-21T07:31:00.020Z,59.10
2023-05-21T07:34:08.318Z,58.71
2023-05-21T07:37:10.825Z,59.81
2023-05-21T07:40:13.758Z,60.36
2023-05-21T07:43:18.185Z,58.94
2023-05-21T07:46:20.872Z,58.52
2023-05-21T07:49:26.899Z,59.21
2023-05-21T07:52:29.500Z,59.21
2023-05-21T07:55:32.259Z,59.72
2023-05-21T07:58:35.306Z,57.06
2023-05-21T08:01:38.298Z,57.00
2023-05-21T08:04:41.457Z,56.11
2023-05-21T08:07:46.409Z,55.50
2023-05-21T08:10:49.318Z,55.04
2023-05-21T08:13:52.411Z,54.32
2023-05-21T08:16:55.013Z,52.53
2023-05-21T08:19:57.801Z,53.51
2023-05-21T08:23:02.945Z,51.12
2023-05-21T08:26:12.989Z,50.30
2023-05-21T08:29:16.432Z,51.00
2023-05-21T08:32:18.889Z,49.67
2023-05-21T08:35:21.538Z,49.90
2023-05-21T08:38:34.804Z,49.99
2023-05-21T08:41:52.076Z,49.47
2023-05-21T08:44:54.512Z,50.67
2023-05-21T08:47:57.655Z,47.54
2023-05-21T08:51:02.059Z,47.02
2023-05-21T08:54:08.612Z,45.95
2023-05-21T08:57:11.139Z,47.21
2023-05-21T09:00:15.113Z,46.30
2023-05-21T09:03:18.097Z,44.82
2023-05-21T09:06:21.650Z,44.28
2023-05-21T09:09:28.255Z,45.34
2023-05-21T09:12:31.009Z,43.11
2023-05-21T09:15:34.995Z,40.54
2023-05-21T09:18:37.563Z,40.42
2023-05-21T09:21:46.863Z,40.73
2023-05-21T09:24:52.927Z,40.08
2023-05-21T09:27:56.291Z,38.71
2023-05-21T09:30:59.433Z,39.43
2023-05-21T09:34:02.719Z,39.33
2023-05-21T09:37:23.602Z,39.11
2023-05-21T09:40:30.820Z,37.85
2023-05-21T09:43:33.300Z,37.48
2023-05-21T09:46:40.644Z,37.66
2023-05-21T09:49:44.137Z,38.37
2023-05-21T09:52:46.787Z,38.54
2023-05-21T09:55:50.730Z,38.56
2023-05-21T09:58:57.190Z,37.66
2023-05-21T10:01:59.938Z,37.95
2023-05-21T10:05:02.569Z,36.50
2023-05-21T10:08:05.257Z,37.90
2023-05-21T10:11:07.671Z,38.05
2023-05-21T10:14:15.495Z,35.73
2023-05-21T10:17:18.081Z,35.60
2023-05-21T10:20:20.952Z,33.22
2023-05-21T10:23:23.867Z,34.47
2023-05-21T10:26:26.518Z,31.97
2023-05-21T10:29:28.914Z,33.06
2023-05-21T10:32:31.851Z,33.37
2023-05-21T10:35:34.696Z,31.10
2023-05-21T10:38:37.701Z,31.86
2023-05-21T10:41:50.830Z,32.72
2023-05-21T10:45:12.840Z,32.16
2023-05-21T10:48:20.918Z,33.21
2023-05-21T10:51:30.686Z,34.72
2023-05-21T10:55:02.111Z,34.13
2023-05-21T10:58:56.689Z,34.15
2023-05-21T11:01:59.136Z,34.84
2023-05-21T11:05:01.754Z,35.93
2023-05-21T11:08:04.415Z,34.65
2023-05-21T11:11:06.899Z,34.10
2023-05-21T11:14:40.596Z,35.38
2023-05-21T11:17:44.654Z,34.50
2023-05-21T11:20:51.396Z,35.93
2023-05-21T11:23:55.587Z,35.28
2023-05-21T11:26:58.701Z,34.57
2023-05-21T11:30:04.218Z,32.64
2023-05-21T11:33:12.352Z,33.51
2023-05-21T11:36:14.834Z,32.26
2023-05-21T11:39:22.095Z,29.75
2023-05-21T11:42:31.058Z,32.77
2023-05-21T11:45:33.523Z,32.54
2023-05-21T11:48:36.144Z,30.05
2023-05-21T11:51:39.809Z,31.84
2023-05-21T11:54:50.884Z,30.42
2023-05-21T11:57:53.969Z,31.29
2023-05-21T12:00:56.444Z,31.07
2023-05-21T12:03:58.862Z,29.25
2023-05-21T12:07:04.146Z,29.89
2023-05-21T12:10:07.254Z,30.28
2023-05-21T12:13:10.015Z,29.37
2023-05-21T12:16:12.648Z,28.95
2023-05-21T12:19:17.772Z,28.51
2023-05-21T12:22:20.365Z,27.71
2023-05-21T12:25:22.848Z,28.65
2023-05-21T12:28:25.247Z,27.65
2023-05-21T12:31:30.192Z,27.18
2023-05-21T12:34:48.803Z,26.16
2023-05-21T12:37:51.273Z,27.90
2023-05-21T12:40:53.675Z,27.27
2023-05-21T12:43:56.029Z,27.59
2023-05-21T12:46:59.370Z,27.48
2023-05-21T12:50:02.625Z,27.83
2023-05-21T12:53:05.029Z,28.82
2023-05-21T12:56:11.499Z,27.88
2023-05-21T12:59:17.111Z,26.80
2023-05-21T13:02:26.818Z,27.60
2023-05-21T13:05:29.808Z,26.80
2023-05-21T13:08:34.469Z,28.99
2023-05-21T13:11:36.890Z,29.95
2023-05-21T13:14:39.496Z,28.59
2023-05-21T13:17:41.944Z,27.13
2023-05-21T13:20:44.350Z,28.14
2023-05-21T13:23:46.692Z,26.80
2023-05-21T13:26:49.176Z,28.83
2023-05-21T13:29:51.573Z,27.35
2023-05-21T13:32:54.228Z,26.99
2023-05-21T13:35:56.750Z,26.75
2023-05-21T13:38:59.126Z,26.04
2023-05-21T13:42:02.325Z,26.18
2023-05-21T13:45:08.841Z,26.86
2023-05-21T13:48:12.055Z,25.98
2023-05-21T13:51:22.468Z,28.32
2023-05-21T13:54:33.437Z,29.06
2023-05-21T13:57:35.820Z,28.59
2023-05-21T14:00:38.594Z,27.56
2023-05-21T14:03:41.327Z,26.96
2023-05-21T14:06:43.727Z,26.46
2023-05-21T14:09:47.797Z,27.29
2023-05-21T14:12:50.172Z,27.97
2023-05-21T14:15:52.567Z,27.62
2023-05-21T14:18:55.217Z,27.77
2023-05-21T14:21:57.793Z,27.77
2023-05-21T14:25:00.145Z,28.73
2023-05-21T14:28:02.538Z,29.73
2023-05-21T14:31:05.109Z,31.18
2023-05-21T14:34:08.824Z,30.46
2023-05-21T14:37:11.218Z,30.57
2023-05-21T14:40:14.057Z,29.85
2023-05-21T14:43:16.447Z,29.31
2023-05-21T14:46:18.951Z,28.70
2023-05-21T14:49:21.402Z,30.48
2023-05-21T14:52:23.752Z,30.03
2023-05-21T14:55:26.873Z,30.17
2023-05-21T14:58:29.271Z,30.30
2023-05-21T15:01:31.886Z,31.19
2023-05-21T15:04:34.331Z,30.15
2023-05-21T15:07:36.857Z,30.29
2023-05-21T15:10:39.262Z,28.85
2023-05-21T15:13:41.665Z,30.06
2023-05-21T15:16:44.308Z,30.51
2023-05-21T15:19:46.840Z,30.18
2023-05-21T15:22:49.249Z,30.45
2023-05-21T15:25:51.760Z,30.34
2023-05-21T15:28:54.131Z,30.83
2023-05-21T15:31:56.653Z,32.16
2023-05-21T15:34:59.192Z,31.39
2023-05-21T15:38:01.606Z,32.20
2023-05-21T15:41:03.937Z,30.84
2023-05-21T15:44:06.756Z,31.24
2023-05-21T15:47:09.196Z,31.51
2023-05-21T15:50:12.254Z,32.98
2023-05-21T15:53:14.619Z,34.54
2023-05-21T15:56:16.978Z,35.25
2023-05-21T15:59:19.325Z,36.44
2023-05-21T16:02:21.766Z,38.05
2023-05-21T16:05:24.183Z,38.47
2023-05-21T16:08:26.548Z,39.12
2023-05-21T16:11:28.980Z,39.95
2023-05-21T16:14:31.405Z,41.53
2023-05-21T16:17:33.823Z,43.18
2023-05-21T16:20:36.336Z,42.36
2023-05-21T16:23:38.943Z,43.47
2023-05-21T16:26:41.328Z,43.64
2023-05-21T16:29:43.743Z,43.89
2023-05-21T16:32:46.196Z,43.82
2023-05-21T16:35:48.636Z,45.44
2023-05-21T16:38:51.886Z,44.73
2023-05-21T16:41:55.931Z,44.46
2023-05-21T16:44:58.286Z,45.12
2023-05-21T16:48:00.761Z,45.43
2023-05-21T16:51:03.123Z,45.34
2023-05-21T16:54:06.419Z,44.35
2023-05-21T16:57:08.946Z,45.23
2023-05-21T17:00:11.837Z,44.93
2023-05-21T17:03:14.321Z,43.34
2023-05-21T17:06:16.765Z,43.94
2023-05-21T17:09:19.208Z,44.00
2023-05-21T17:12:21.659Z,43.90
2023-05-21T17:15:24.126Z,43.68
2023-05-21T17:18:26.487Z,43.20
2023-05-21T17:21:28.885Z,43.31
2023-05-21T17:24:31.377Z,42.63
2023-05-21T17:27:33.710Z,42.44
2023-05-21T17:30:36.264Z,43.08
2023-05-21T17:33:39.233Z,45.01
2023-05-21T17:36:41.606Z,45.74
2023-05-21T17:39:44.086Z,47.00
2023-05-21T17:42:46.493Z,45.10
2023-05-21T17:45:48.835Z,44.48
2023-05-21T17:48:51.448Z,43.84
2023-05-21T17:51:53.925Z,43.69
2023-05-21T17:54:56.375Z,43.91
2023-05-21T17:57:59.084Z,43.92
2023-05-21T18:01:01.572Z,43.88
2023-05-21T18:04:04.431Z,44.15
2023-05-21T18:07:07.372Z,44.51
2023-05-21T18:10:09.934Z,44.42
2023-05-21T18:13:12.346Z,46.35
2023-05-21T18:16:14.777Z,47.59
2023-05-21T18:19:17.258Z,48.98
2023-05-21T18:22:19.687Z,50.74
2023-05-21T18:25:22.141Z,50.62
2023-05-21T18:28:24.595Z,51.26
2023-05-21T18:31:27.113Z,52.00
2023-05-21T18:34:29.618Z,51.45
2023-05-21T18:37:32.050Z,50.93
2023-05-21T18:40:34.564Z,51.02
2023-05-21T18:43:37.234Z,51.02
2023-05-21T18:46:39.651Z,51.00
2023-05-21T18:49:42.143Z,50.85
2023-05-21T18:52:44.620Z,50.88
2023-05-21T18:55:47.126Z,51.21
2023-05-21T18:58:49.530Z,51.43
2023-05-21T19:01:52.015Z,51.72
2023-05-21T19:04:54.491Z,52.95
2023-05-21T19:07:59.268Z,53.30
2023-05-21T19:11:01.957Z,52.44
2023-05-21T19:14:04.587Z,51.75
2023-05-21T19:17:08.432Z,51.76
2023-05-21T19:20:10.961Z,51.78
2023-05-21T19:23:13.377Z,52.92
2023-05-21T19:26:15.813Z,53.12
2023-05-21T19:29:18.243Z,53.03
2023-05-21T19:32:21.324Z,53.02
2023-05-21T19:35:23.712Z,53.29
2023-05-21T19:38:26.115Z,53.38
2023-05-21T19:41:28.545Z,53.32
2023-05-21T19:44:31.186Z,53.06
2023-05-21T19:47:33.596Z,53.08
2023-05-21T19:50:36.325Z,53.21
2023-05-21T19:53:38.884Z,53.35
2023-05-21T19:56:41.586Z,53.16
2023-05-21T19:59:43.947Z,53.17
2023-05-21T20:02:46.821Z,53.11
2023-05-21T20:05:49.243Z,52.74
2023-05-21T20:08:51.896Z,52.98
2023-05-21T20:11:54.274Z,53.09
2023-05-21T20:14:56.977Z,53.41
2023-05-21T20:17:59.460Z,53.89
2023-05-21T20:21:06.175Z,55.01
2023-05-21T20:24:08.814Z,56.13
2023-05-21T20:27:11.230Z,56.10
2023-05-21T20:30:13.700Z,56.90
2023-05-21T20:33:16.089Z,56.50
2023-05-21T20:36:18.643Z,57.64
2023-05-21T20:39:22.998Z,58.45
2023-05-21T20:42:30.788Z,58.69
2023-05-21T20:45:33.613Z,58.85
2023-05-21T20:48:36.082Z,59.40
2023-05-21T20:51:38.499Z,59.62
2023-05-21T20:54:42.645Z,59.78
2023-05-21T20:57:45.033Z,59.31
2023-05-21T21:00:47.599Z,60.23
2023-05-21T21:03:50.228Z,59.89
2023-05-21T21:06:53.405Z,59.61
2023-05-21T21:09:55.791Z,59.64
2023-05-21T21:12:58.172Z,59.76
2023-05-21T21:16:00.694Z,59.23
2023-05-21T21:19:03.235Z,59.54
2023-05-21T21:22:05.673Z,58.85
2023-05-21T21:25:08.476Z,58.22
2023-05-21T21:28:11.054Z,58.10
2023-05-21T21:31:13.440Z,58.13
2023-05-21T21:34:16.116Z,57.42
2023-05-21T21:37:18.528Z,56.83
2023-05-21T21:40:21.258Z,56.72
2023-05-21T21:43:23.629Z,56.26
2023-05-21T21:46:26.546Z,56.26
2023-05-21T21:49:28.894Z,56.88
2023-05-21T21:52:32.601Z,56.01
2023-05-21T21:55:35.082Z,56.49
2023-05-21T21:58:37.714Z,56.35
2023-05-21T22:01:40.128Z,56.57
2023-05-21T22:04:43.723Z,56.99
2023-05-21T22:07:46.820Z,57.24
2023-05-21T22:10:49.290Z,58.21
2023-05-21T22:13:53.892Z,57.76
2023-05-21T22:16:56.261Z,57.82
2023-05-21T22:19:58.686Z,58.25
2023-05-21T22:23:01.169Z,58.13
2023-05-21T22:26:03.708Z,58.53
2023-05-21T22:29:06.204Z,58.71
2023-05-21T22:32:08.622Z,59.10
2023-05-21T22:35:12.664Z,59.27
2023-05-21T22:38:15.026Z,59.11
2023-05-21T22:41:17.421Z,59.03
2023-05-21T22:44:19.779Z,58.37
2023-05-21T22:47:23.981Z,58.91
2023-05-21T22:50:29.154Z,59.38
2023-05-21T22:53:32.392Z,58.34
2023-05-21T22:56:34.746Z,57.67
2023-05-21T22:59:37.112Z,58.01
2023-05-21T23:02:39.553Z,57.54
2023-05-21T23:05:42.009Z,56.97
2023-05-21T23:08:44.789Z,57.51
2023-05-21T23:11:47.162Z,58.46
2023-05-21T23:14:49.517Z,60.67
2023-05-21T23:17:51.952Z,60.47
2023-05-21T23:20:54.330Z,59.88
2023-05-21T23:23:56.757Z,59.64
2023-05-21T23:27:02.917Z,60.22
2023-05-21T23:30:06.011Z,59.98
2023-05-21T23:33:08.875Z,60.21
2023-05-21T23:36:11.347Z,60.15
2023-05-21T23:39:13.738Z,60.25
2023-05-21T23:42:16.679Z,59.91
2023-05-21T23:45:19.087Z,60.06
2023-05-21T23:48:21.545Z,59.84
2023-05-21T23:51:24.018Z,60.44
2023-05-21T23:54:26.360Z,61.17
2023-05-21T23:57:28.758Z,61.83
